sensor_id;sensor_type;location;lat;lon;timestamp;P1;durP1;ratioP1;P2;durP2;ratioP2
11970;SDS011;6045;42.682;23.294;2022-10-13T00:01:13;5.63;;;3.90;;
11970;SDS011;6045;42.682;23.294;2022-10-13T00:03:41;6.43;;;4.53;;
11970;SDS011;6045;42.682;23.294;2022-10-13T00:06:11;6.87;;;3.90;;
11970;SDS011;6045;42.682;23.294;2022-10-13T00:08:39;7.93;;;4.30;;
11970;SDS011;6045;42.682;23.294;2022-10-13T00:11:12;5.60;;;3.83;;
11970;SDS011;6045;42.682;23.294;2022-10-13T00:13:41;6.47;;;3.90;;
11970;SDS011;6045;42.682;23.294;2022-10-13T00:16:08;6.00;;;3.80;;
11970;SDS011;6045;42.682;23.294;2022-10-13T00:18:36;5.73;;;4.47;;
11970;SDS011;6045;42.682;23.294;2022-10-13T00:21:05;3.83;;;3.03;;
11970;SDS011;6045;42.682;23.294;2022-10-13T00:23:33;4.17;;;3.60;;
11970;SDS011;6045;42.682;23.294;2022-10-13T00:26:01;5.80;;;3.63;;
11970;SDS011;6045;42.682;23.294;2022-10-13T00:28:30;6.10;;;4.27;;
11970;SDS011;6045;42.682;23.294;2022-10-13T00:30:57;5.97;;;3.80;;
11970;SDS011;6045;42.682;23.294;2022-10-13T00:33:24;5.97;;;3.13;;
11970;SDS011;6045;42.682;23.294;2022-10-13T00:35:51;3.57;;;2.73;;
11970;SDS011;6045;42.682;23.294;2022-10-13T00:38:19;3.80;;;3.13;;
11970;SDS011;6045;42.682;23.294;2022-10-13T00:40:48;3.27;;;2.93;;
11970;SDS011;6045;42.682;23.294;2022-10-13T00:43:17;4.37;;;3.33;;
11970;SDS011;6045;42.682;23.294;2022-10-13T00:45:47;4.43;;;3.27;;
11970;SDS011;6045;42.682;23.294;2022-10-13T00:48:15;6.80;;;3.13;;
11970;SDS011;6045;42.682;23.294;2022-10-13T00:50:43;3.73;;;2.97;;
11970;SDS011;6045;42.682;23.294;2022-10-13T00:53:11;3.80;;;2.77;;
11970;SDS011;6045;42.682;23.294;2022-10-13T00:55:42;2.63;;;2.23;;
11970;SDS011;6045;42.682;23.294;2022-10-13T00:58:11;2.33;;;2.10;;
11970;SDS011;6045;42.682;23.294;2022-10-13T01:00:42;3.20;;;2.87;;
11970;SDS011;6045;42.682;23.294;2022-10-13T01:03:12;5.07;;;2.80;;
11970;SDS011;6045;42.682;23.294;2022-10-13T01:05:39;4.00;;;2.50;;
11970;SDS011;6045;42.682;23.294;2022-10-13T01:08:07;5.37;;;2.67;;
11970;SDS011;6045;42.682;23.294;2022-10-13T01:10:39;4.17;;;2.87;;
11970;SDS011;6045;42.682;23.294;2022-10-13T01:13:15;4.47;;;2.80;;
11970;SDS011;6045;42.682;23.294;2022-10-13T01:15:52;3.20;;;2.33;;
11970;SDS011;6045;42.682;23.294;2022-10-13T01:18:28;3.70;;;3.27;;
11970;SDS011;6045;42.682;23.294;2022-10-13T01:21:05;5.40;;;3.40;;
11970;SDS011;6045;42.682;23.294;2022-10-13T01:23:46;4.07;;;3.00;;
11970;SDS011;6045;42.682;23.294;2022-10-13T01:26:40;4.43;;;3.20;;
11970;SDS011;6045;42.682;23.294;2022-10-13T01:29:27;5.03;;;2.77;;
11970;SDS011;6045;42.682;23.294;2022-10-13T01:32:10;3.97;;;3.20;;
11970;SDS011;6045;42.682;23.294;2022-10-13T01:34:53;4.90;;;2.83;;
11970;SDS011;6045;42.682;23.294;2022-10-13T01:37:27;5.27;;;3.23;;
11970;SDS011;6045;42.682;23.294;2022-10-13T01:39:59;3.93;;;3.17;;
11970;SDS011;6045;42.682;23.294;2022-10-13T01:42:34;2.60;;;2.37;;
11970;SDS011;6045;42.682;23.294;2022-10-13T01:45:07;4.67;;;3.33;;
11970;SDS011;6045;42.682;23.294;2022-10-13T01:47:38;5.50;;;3.00;;
11970;SDS011;6045;42.682;23.294;2022-10-13T01:50:06;4.60;;;3.17;;
11970;SDS011;6045;42.682;23.294;2022-10-13T01:52:34;4.40;;;2.60;;
11970;SDS011;6045;42.682;23.294;2022-10-13T01:55:04;5.07;;;3.30;;
11970;SDS011;6045;42.682;23.294;2022-10-13T01:57:33;4.53;;;3.70;;
11970;SDS011;6045;42.682;23.294;2022-10-13T02:00:04;5.47;;;3.47;;
11970;SDS011;6045;42.682;23.294;2022-10-13T02:02:36;3.90;;;3.27;;
11970;SDS011;6045;42.682;23.294;2022-10-13T02:05:11;4.90;;;3.23;;
11970;SDS011;6045;42.682;23.294;2022-10-13T02:07:45;3.53;;;2.83;;
11970;SDS011;6045;42.682;23.294;2022-10-13T02:10:20;3.43;;;2.70;;
11970;SDS011;6045;42.682;23.294;2022-10-13T02:12:54;5.70;;;2.83;;
11970;SDS011;6045;42.682;23.294;2022-10-13T02:15:27;4.23;;;2.53;;
11970;SDS011;6045;42.682;23.294;2022-10-13T02:17:59;4.27;;;3.70;;
11970;SDS011;6045;42.682;23.294;2022-10-13T02:20:27;7.53;;;3.50;;
11970;SDS011;6045;42.682;23.294;2022-10-13T02:22:55;5.43;;;3.37;;
11970;SDS011;6045;42.682;23.294;2022-10-13T02:25:27;3.80;;;3.00;;
11970;SDS011;6045;42.682;23.294;2022-10-13T02:27:56;5.50;;;3.53;;
11970;SDS011;6045;42.682;23.294;2022-10-13T02:30:26;4.37;;;2.70;;
11970;SDS011;6045;42.682;23.294;2022-10-13T02:32:54;4.47;;;3.47;;
11970;SDS011;6045;42.682;23.294;2022-10-13T02:35:23;4.70;;;3.73;;
11970;SDS011;6045;42.682;23.294;2022-10-13T02:37:50;4.97;;;3.63;;
11970;SDS011;6045;42.682;23.294;2022-10-13T02:40:16;6.97;;;4.30;;
11970;SDS011;6045;42.682;23.294;2022-10-13T02:42:43;7.07;;;4.37;;
11970;SDS011;6045;42.682;23.294;2022-10-13T02:45:10;5.43;;;3.83;;
11970;SDS011;6045;42.682;23.294;2022-10-13T02:47:37;5.20;;;3.43;;
11970;SDS011;6045;42.682;23.294;2022-10-13T02:50:05;8.23;;;4.50;;
11970;SDS011;6045;42.682;23.294;2022-10-13T02:52:34;4.93;;;3.13;;
11970;SDS011;6045;42.682;23.294;2022-10-13T02:55:01;5.37;;;3.80;;
11970;SDS011;6045;42.682;23.294;2022-10-13T02:57:29;5.17;;;3.77;;
11970;SDS011;6045;42.682;23.294;2022-10-13T02:59:56;6.03;;;3.83;;
11970;SDS011;6045;42.682;23.294;2022-10-13T03:02:23;6.03;;;4.23;;
11970;SDS011;6045;42.682;23.294;2022-10-13T03:04:51;5.70;;;3.60;;
11970;SDS011;6045;42.682;23.294;2022-10-13T03:07:18;4.77;;;2.93;;
11970;SDS011;6045;42.682;23.294;2022-10-13T03:09:46;6.80;;;4.57;;
11970;SDS011;6045;42.682;23.294;2022-10-13T03:12:13;7.00;;;4.30;;
11970;SDS011;6045;42.682;23.294;2022-10-13T03:14:40;5.47;;;3.93;;
11970;SDS011;6045;42.682;23.294;2022-10-13T03:17:07;5.70;;;3.13;;
11970;SDS011;6045;42.682;23.294;2022-10-13T03:19:34;7.00;;;4.23;;
11970;SDS011;6045;42.682;23.294;2022-10-13T03:22:01;5.30;;;4.60;;
11970;SDS011;6045;42.682;23.294;2022-10-13T03:24:28;3.93;;;3.13;;
11970;SDS011;6045;42.682;23.294;2022-10-13T03:26:57;4.17;;;3.60;;
11970;SDS011;6045;42.682;23.294;2022-10-13T03:29:24;5.37;;;3.50;;
11970;SDS011;6045;42.682;23.294;2022-10-13T03:31:51;6.73;;;4.13;;
11970;SDS011;6045;42.682;23.294;2022-10-13T03:34:17;7.00;;;3.97;;
11970;SDS011;6045;42.682;23.294;2022-10-13T03:36:45;5.70;;;4.17;;
11970;SDS011;6045;42.682;23.294;2022-10-13T03:39:12;6.90;;;3.90;;
11970;SDS011;6045;42.682;23.294;2022-10-13T03:41:39;6.53;;;3.50;;
11970;SDS011;6045;42.682;23.294;2022-10-13T03:44:07;4.93;;;4.20;;
11970;SDS011;6045;42.682;23.294;2022-10-13T03:46:36;6.90;;;4.13;;
11970;SDS011;6045;42.682;23.294;2022-10-13T03:49:06;8.43;;;4.50;;
11970;SDS011;6045;42.682;23.294;2022-10-13T03:51:33;6.83;;;4.27;;
11970;SDS011;6045;42.682;23.294;2022-10-13T03:54:00;5.93;;;4.70;;
11970;SDS011;6045;42.682;23.294;2022-10-13T03:56:27;11.13;;;5.37;;
11970;SDS011;6045;42.682;23.294;2022-10-13T03:58:54;7.60;;;5.50;;
11970;SDS011;6045;42.682;23.294;2022-10-13T04:01:24;5.63;;;4.60;;
11970;SDS011;6045;42.682;23.294;2022-10-13T04:03:52;8.80;;;4.70;;
11970;SDS011;6045;42.682;23.294;2022-10-13T04:06:20;5.93;;;5.17;;
11970;SDS011;6045;42.682;23.294;2022-10-13T04:08:48;9.20;;;4.93;;
11970;SDS011;6045;42.682;23.294;2022-10-13T04:11:15;7.50;;;4.37;;
11970;SDS011;6045;42.682;23.294;2022-10-13T04:13:45;9.70;;;5.47;;
11970;SDS011;6045;42.682;23.294;2022-10-13T04:16:13;7.37;;;4.97;;
11970;SDS011;6045;42.682;23.294;2022-10-13T04:18:42;7.77;;;5.53;;
11970;SDS011;6045;42.682;23.294;2022-10-13T04:21:09;7.90;;;5.20;;
11970;SDS011;6045;42.682;23.294;2022-10-13T04:23:38;8.80;;;5.07;;
11970;SDS011;6045;42.682;23.294;2022-10-13T04:29:27;8.73;;;5.80;;
11970;SDS011;6045;42.682;23.294;2022-10-13T04:31:54;5.93;;;4.40;;
11970;SDS011;6045;42.682;23.294;2022-10-13T04:34:22;9.67;;;5.47;;
11970;SDS011;6045;42.682;23.294;2022-10-13T04:36:49;7.10;;;5.77;;
11970;SDS011;6045;42.682;23.294;2022-10-13T04:39:16;5.80;;;4.60;;
11970;SDS011;6045;42.682;23.294;2022-10-13T04:41:43;8.77;;;7.80;;
11970;SDS011;6045;42.682;23.294;2022-10-13T04:44:10;13.73;;;7.83;;
11970;SDS011;6045;42.682;23.294;2022-10-13T04:46:37;11.87;;;7.30;;
11970;SDS011;6045;42.682;23.294;2022-10-13T04:49:04;10.00;;;6.83;;
11970;SDS011;6045;42.682;23.294;2022-10-13T04:51:33;8.80;;;5.23;;
11970;SDS011;6045;42.682;23.294;2022-10-13T04:54:00;10.50;;;5.90;;
11970;SDS011;6045;42.682;23.294;2022-10-13T04:56:27;10.33;;;6.13;;
11970;SDS011;6045;42.682;23.294;2022-10-13T04:58:54;9.37;;;6.83;;
11970;SDS011;6045;42.682;23.294;2022-10-13T05:01:24;9.90;;;6.00;;
11970;SDS011;6045;42.682;23.294;2022-10-13T05:03:51;8.57;;;5.00;;
11970;SDS011;6045;42.682;23.294;2022-10-13T05:06:19;9.70;;;5.60;;
11970;SDS011;6045;42.682;23.294;2022-10-13T05:08:49;10.07;;;6.30;;
11970;SDS011;6045;42.682;23.294;2022-10-13T05:11:16;8.87;;;5.87;;
11970;SDS011;6045;42.682;23.294;2022-10-13T05:13:44;8.07;;;6.30;;
11970;SDS011;6045;42.682;23.294;2022-10-13T05:16:29;9.70;;;6.43;;
11970;SDS011;6045;42.682;23.294;2022-10-13T05:18:56;8.90;;;5.60;;
11970;SDS011;6045;42.682;23.294;2022-10-13T05:21:24;7.33;;;5.43;;
11970;SDS011;6045;42.682;23.294;2022-10-13T05:23:53;9.80;;;5.63;;
11970;SDS011;6045;42.682;23.294;2022-10-13T05:26:22;7.47;;;5.10;;
11970;SDS011;6045;42.682;23.294;2022-10-13T05:28:52;9.90;;;5.37;;
11970;SDS011;6045;42.682;23.294;2022-10-13T05:31:20;10.07;;;6.57;;
11970;SDS011;6045;42.682;23.294;2022-10-13T05:33:49;12.73;;;6.67;;
11970;SDS011;6045;42.682;23.294;2022-10-13T05:36:18;12.77;;;6.57;;
11970;SDS011;6045;42.682;23.294;2022-10-13T05:38:48;10.33;;;6.97;;
11970;SDS011;6045;42.682;23.294;2022-10-13T05:41:19;11.67;;;6.03;;
11970;SDS011;6045;42.682;23.294;2022-10-13T05:43:46;11.40;;;6.80;;
11970;SDS011;6045;42.682;23.294;2022-10-13T05:46:14;12.90;;;6.03;;
11970;SDS011;6045;42.682;23.294;2022-10-13T05:48:40;9.53;;;6.23;;
11970;SDS011;6045;42.682;23.294;2022-10-13T05:51:09;7.73;;;5.17;;
11970;SDS011;6045;42.682;23.294;2022-10-13T05:53:39;10.23;;;6.27;;
11970;SDS011;6045;42.682;23.294;2022-10-13T05:56:30;9.17;;;6.43;;
11970;SDS011;6045;42.682;23.294;2022-10-13T05:59:03;10.13;;;6.13;;
11970;SDS011;6045;42.682;23.294;2022-10-13T06:01:35;8.03;;;5.93;;
11970;SDS011;6045;42.682;23.294;2022-10-13T06:04:07;9.43;;;6.23;;
11970;SDS011;6045;42.682;23.294;2022-10-13T06:06:37;11.70;;;8.07;;
11970;SDS011;6045;42.682;23.294;2022-10-13T06:09:04;9.73;;;7.10;;
11970;SDS011;6045;42.682;23.294;2022-10-13T06:11:32;15.67;;;9.80;;
11970;SDS011;6045;42.682;23.294;2022-10-13T06:14:00;10.47;;;7.30;;
11970;SDS011;6045;42.682;23.294;2022-10-13T06:16:27;12.13;;;8.40;;
11970;SDS011;6045;42.682;23.294;2022-10-13T06:18:54;11.47;;;8.70;;
11970;SDS011;6045;42.682;23.294;2022-10-13T06:21:20;12.40;;;7.67;;
11970;SDS011;6045;42.682;23.294;2022-10-13T06:23:47;15.67;;;8.63;;
11970;SDS011;6045;42.682;23.294;2022-10-13T06:26:14;12.10;;;7.77;;
11970;SDS011;6045;42.682;23.294;2022-10-13T06:28:42;14.87;;;7.50;;
11970;SDS011;6045;42.682;23.294;2022-10-13T06:31:09;14.23;;;8.10;;
11970;SDS011;6045;42.682;23.294;2022-10-13T06:33:36;10.15;;;6.65;;
11970;SDS011;6045;42.682;23.294;2022-10-13T06:36:03;7.75;;;6.80;;
11970;SDS011;6045;42.682;23.294;2022-10-13T06:38:31;10.65;;;6.28;;
11970;SDS011;6045;42.682;23.294;2022-10-13T06:40:59;14.90;;;6.78;;
11970;SDS011;6045;42.682;23.294;2022-10-13T06:43:26;10.80;;;6.65;;
11970;SDS011;6045;42.682;23.294;2022-10-13T06:45:57;11.30;;;6.80;;
11970;SDS011;6045;42.682;23.294;2022-10-13T06:48:24;10.27;;;6.15;;
11970;SDS011;6045;42.682;23.294;2022-10-13T06:50:52;10.93;;;6.60;;
11970;SDS011;6045;42.682;23.294;2022-10-13T06:53:19;12.75;;;6.28;;
11970;SDS011;6045;42.682;23.294;2022-10-13T06:55:46;10.10;;;6.95;;
11970;SDS011;6045;42.682;23.294;2022-10-13T06:58:12;12.13;;;7.35;;
11970;SDS011;6045;42.682;23.294;2022-10-13T07:00:39;11.52;;;8.00;;
11970;SDS011;6045;42.682;23.294;2022-10-13T07:03:09;46.05;;;27.77;;
11970;SDS011;6045;42.682;23.294;2022-10-13T07:05:36;20.42;;;12.05;;
11970;SDS011;6045;42.682;23.294;2022-10-13T07:08:05;11.02;;;7.10;;
11970;SDS011;6045;42.682;23.294;2022-10-13T07:10:32;13.68;;;7.57;;
11970;SDS011;6045;42.682;23.294;2022-10-13T07:12:59;12.82;;;7.80;;
11970;SDS011;6045;42.682;23.294;2022-10-13T07:15:27;13.55;;;7.88;;
11970;SDS011;6045;42.682;23.294;2022-10-13T07:17:54;12.40;;;7.45;;
11970;SDS011;6045;42.682;23.294;2022-10-13T07:20:23;13.50;;;8.38;;
11970;SDS011;6045;42.682;23.294;2022-10-13T07:22:51;14.18;;;9.52;;
11970;SDS011;6045;42.682;23.294;2022-10-13T07:25:18;11.88;;;8.38;;
11970;SDS011;6045;42.682;23.294;2022-10-13T07:27:45;17.58;;;10.35;;
11970;SDS011;6045;42.682;23.294;2022-10-13T07:30:12;13.82;;;8.27;;
11970;SDS011;6045;42.682;23.294;2022-10-13T07:32:39;16.67;;;9.45;;
11970;SDS011;6045;42.682;23.294;2022-10-13T07:35:06;15.40;;;9.90;;
11970;SDS011;6045;42.682;23.294;2022-10-13T07:37:36;16.30;;;9.30;;
11970;SDS011;6045;42.682;23.294;2022-10-13T07:40:04;13.95;;;8.32;;
11970;SDS011;6045;42.682;23.294;2022-10-13T07:42:33;12.90;;;7.93;;
11970;SDS011;6045;42.682;23.294;2022-10-13T07:45:00;11.30;;;8.05;;
11970;SDS011;6045;42.682;23.294;2022-10-13T07:47:27;14.85;;;8.50;;
11970;SDS011;6045;42.682;23.294;2022-10-13T07:49:54;15.60;;;8.40;;
11970;SDS011;6045;42.682;23.294;2022-10-13T07:52:21;11.50;;;8.02;;
11970;SDS011;6045;42.682;23.294;2022-10-13T07:54:51;12.00;;;7.85;;
11970;SDS011;6045;42.682;23.294;2022-10-13T07:57:18;14.43;;;7.32;;
11970;SDS011;6045;42.682;23.294;2022-10-13T07:59:45;12.65;;;8.13;;
11970;SDS011;6045;42.682;23.294;2022-10-13T08:02:12;13.55;;;7.93;;
11970;SDS011;6045;42.682;23.294;2022-10-13T08:04:39;14.77;;;8.88;;
11970;SDS011;6045;42.682;23.294;2022-10-13T08:07:05;12.13;;;8.18;;
11970;SDS011;6045;42.682;23.294;2022-10-13T08:09:33;11.90;;;7.78;;
11970;SDS011;6045;42.682;23.294;2022-10-13T08:12:01;12.68;;;7.70;;
11970;SDS011;6045;42.682;23.294;2022-10-13T08:14:28;12.05;;;8.38;;
11970;SDS011;6045;42.682;23.294;2022-10-13T08:16:58;12.10;;;8.15;;
11970;SDS011;6045;42.682;23.294;2022-10-13T08:19:25;9.38;;;7.53;;
11970;SDS011;6045;42.682;23.294;2022-10-13T08:21:52;11.45;;;6.97;;
11970;SDS011;6045;42.682;23.294;2022-10-13T08:24:19;12.23;;;7.75;;
11970;SDS011;6045;42.682;23.294;2022-10-13T08:26:47;13.85;;;8.73;;
11970;SDS011;6045;42.682;23.294;2022-10-13T08:29:16;12.30;;;7.97;;
11970;SDS011;6045;42.682;23.294;2022-10-13T08:31:43;19.70;;;9.60;;
11970;SDS011;6045;42.682;23.294;2022-10-13T08:34:10;10.48;;;8.70;;
11970;SDS011;6045;42.682;23.294;2022-10-13T08:36:37;15.07;;;9.15;;
11970;SDS011;6045;42.682;23.294;2022-10-13T08:39:05;12.48;;;8.10;;
11970;SDS011;6045;42.682;23.294;2022-10-13T08:41:34;18.25;;;9.48;;
11970;SDS011;6045;42.682;23.294;2022-10-13T08:44:04;12.70;;;7.13;;
11970;SDS011;6045;42.682;23.294;2022-10-13T08:46:36;12.55;;;8.57;;
11970;SDS011;6045;42.682;23.294;2022-10-13T08:49:08;12.98;;;8.18;;
11970;SDS011;6045;42.682;23.294;2022-10-13T08:51:36;13.02;;;8.30;;
11970;SDS011;6045;42.682;23.294;2022-10-13T08:54:03;13.25;;;8.35;;
11970;SDS011;6045;42.682;23.294;2022-10-13T08:56:31;12.65;;;7.70;;
11970;SDS011;6045;42.682;23.294;2022-10-13T08:59:01;13.02;;;8.25;;
11970;SDS011;6045;42.682;23.294;2022-10-13T09:01:29;12.82;;;8.63;;
11970;SDS011;6045;42.682;23.294;2022-10-13T09:04:02;12.57;;;8.43;;
11970;SDS011;6045;42.682;23.294;2022-10-13T09:06:57;11.75;;;7.72;;
11970;SDS011;6045;42.682;23.294;2022-10-13T09:09:28;14.23;;;8.20;;
11970;SDS011;6045;42.682;23.294;2022-10-13T09:11:55;12.90;;;8.07;;
11970;SDS011;6045;42.682;23.294;2022-10-13T09:14:24;12.15;;;7.85;;
11970;SDS011;6045;42.682;23.294;2022-10-13T09:16:53;10.90;;;8.27;;
11970;SDS011;6045;42.682;23.294;2022-10-13T09:19:24;11.88;;;8.15;;
11970;SDS011;6045;42.682;23.294;2022-10-13T09:21:53;14.93;;;8.15;;
11970;SDS011;6045;42.682;23.294;2022-10-13T09:24:22;12.98;;;7.13;;
11970;SDS011;6045;42.682;23.294;2022-10-13T09:26:51;11.30;;;7.07;;
11970;SDS011;6045;42.682;23.294;2022-10-13T09:29:29;11.68;;;8.23;;
11970;SDS011;6045;42.682;23.294;2022-10-13T09:32:06;13.38;;;7.90;;
11970;SDS011;6045;42.682;23.294;2022-10-13T09:34:41;14.63;;;7.32;;
11970;SDS011;6045;42.682;23.294;2022-10-13T09:37:15;10.35;;;7.70;;
11970;SDS011;6045;42.682;23.294;2022-10-13T09:39:44;10.02;;;7.47;;
11970;SDS011;6045;42.682;23.294;2022-10-13T09:42:18;10.65;;;6.07;;
11970;SDS011;6045;42.682;23.294;2022-10-13T09:44:54;10.10;;;6.68;;
11970;SDS011;6045;42.682;23.294;2022-10-13T09:47:22;7.95;;;6.70;;
11970;SDS011;6045;42.682;23.294;2022-10-13T09:50:02;11.90;;;7.68;;
11970;SDS011;6045;42.682;23.294;2022-10-13T09:52:39;11.80;;;6.60;;
11970;SDS011;6045;42.682;23.294;2022-10-13T09:55:20;10.35;;;6.60;;
11970;SDS011;6045;42.682;23.294;2022-10-13T09:57:54;13.27;;;7.78;;
11970;SDS011;6045;42.682;23.294;2022-10-13T10:00:26;9.30;;;6.50;;
11970;SDS011;6045;42.682;23.294;2022-10-13T10:02:54;12.40;;;7.80;;
11970;SDS011;6045;42.682;23.294;2022-10-13T10:05:27;12.93;;;7.35;;
11970;SDS011;6045;42.682;23.294;2022-10-13T10:08:03;10.82;;;7.40;;
11970;SDS011;6045;42.682;23.294;2022-10-13T10:10:38;10.68;;;7.35;;
11970;SDS011;6045;42.682;23.294;2022-10-13T10:13:07;13.75;;;8.75;;
11970;SDS011;6045;42.682;23.294;2022-10-13T10:15:37;12.80;;;7.70;;
11970;SDS011;6045;42.682;23.294;2022-10-13T10:18:15;13.27;;;7.97;;
11970;SDS011;6045;42.682;23.294;2022-10-13T10:20:52;10.50;;;7.00;;
11970;SDS011;6045;42.682;23.294;2022-10-13T10:23:28;11.02;;;7.35;;
11970;SDS011;6045;42.682;23.294;2022-10-13T10:26:03;14.02;;;8.05;;
11970;SDS011;6045;42.682;23.294;2022-10-13T10:28:46;9.52;;;6.60;;
11970;SDS011;6045;42.682;23.294;2022-10-13T10:31:29;12.80;;;7.03;;
11970;SDS011;6045;42.682;23.294;2022-10-13T10:34:09;9.50;;;7.38;;
11970;SDS011;6045;42.682;23.294;2022-10-13T10:36:56;10.50;;;6.50;;
11970;SDS011;6045;42.682;23.294;2022-10-13T10:39:34;12.13;;;7.68;;
11970;SDS011;6045;42.682;23.294;2022-10-13T10:42:07;10.55;;;6.13;;
11970;SDS011;6045;42.682;23.294;2022-10-13T10:44:45;10.98;;;6.82;;
11970;SDS011;6045;42.682;23.294;2022-10-13T10:47:17;12.68;;;6.65;;
11970;SDS011;6045;42.682;23.294;2022-10-13T10:49:48;11.88;;;7.07;;
11970;SDS011;6045;42.682;23.294;2022-10-13T10:52:21;9.90;;;6.63;;
11970;SDS011;6045;42.682;23.294;2022-10-13T10:54:54;11.70;;;6.05;;
11970;SDS011;6045;42.682;23.294;2022-10-13T10:57:28;10.77;;;6.32;;
11970;SDS011;6045;42.682;23.294;2022-10-13T11:00:03;8.70;;;6.68;;
11970;SDS011;6045;42.682;23.294;2022-10-13T11:02:38;11.70;;;6.30;;
11970;SDS011;6045;42.682;23.294;2022-10-13T11:05:12;11.57;;;7.15;;
11970;SDS011;6045;42.682;23.294;2022-10-13T11:07:59;10.77;;;6.10;;
11970;SDS011;6045;42.682;23.294;2022-10-13T11:10:26;8.73;;;5.85;;
11970;SDS011;6045;42.682;23.294;2022-10-13T11:15:50;9.63;;;6.05;;
11970;SDS011;6045;42.682;23.294;2022-10-13T11:24:51;9.38;;;6.57;;
11970;SDS011;6045;42.682;23.294;2022-10-13T11:27:24;10.70;;;6.57;;
11970;SDS011;6045;42.682;23.294;2022-10-13T11:29:54;7.88;;;5.80;;
11970;SDS011;6045;42.682;23.294;2022-10-13T11:32:44;11.50;;;6.55;;
11970;SDS011;6045;42.682;23.294;2022-10-13T11:35:22;8.55;;;6.15;;
11970;SDS011;6045;42.682;23.294;2022-10-13T11:38:08;9.48;;;6.10;;
11970;SDS011;6045;42.682;23.294;2022-10-13T11:40:58;9.85;;;5.65;;
11970;SDS011;6045;42.682;23.294;2022-10-13T11:43:39;8.93;;;6.03;;
11970;SDS011;6045;42.682;23.294;2022-10-13T11:46:21;25.20;;;14.93;;
11970;SDS011;6045;42.682;23.294;2022-10-13T11:49:05;10.45;;;6.63;;
11970;SDS011;6045;42.682;23.294;2022-10-13T11:51:47;6.40;;;4.93;;
11970;SDS011;6045;42.682;23.294;2022-10-13T11:54:33;9.43;;;5.43;;
11970;SDS011;6045;42.682;23.294;2022-10-13T11:57:15;8.48;;;5.25;;
11970;SDS011;6045;42.682;23.294;2022-10-13T11:59:44;8.07;;;5.45;;
11970;SDS011;6045;42.682;23.294;2022-10-13T12:02:13;8.82;;;4.88;;
11970;SDS011;6045;42.682;23.294;2022-10-13T12:04:41;9.23;;;5.13;;
11970;SDS011;6045;42.682;23.294;2022-10-13T12:07:10;8.73;;;5.50;;
11970;SDS011;6045;42.682;23.294;2022-10-13T12:09:47;7.50;;;4.63;;
11970;SDS011;6045;42.682;23.294;2022-10-13T12:12:17;8.57;;;5.20;;
11970;SDS011;6045;42.682;23.294;2022-10-13T12:14:47;4.88;;;3.80;;
11970;SDS011;6045;42.682;23.294;2022-10-13T12:17:20;7.35;;;4.30;;
11970;SDS011;6045;42.682;23.294;2022-10-13T12:19:48;7.75;;;4.82;;
11970;SDS011;6045;42.682;23.294;2022-10-13T12:22:15;5.70;;;3.90;;
11970;SDS011;6045;42.682;23.294;2022-10-13T12:24:42;5.60;;;3.47;;
11970;SDS011;6045;42.682;23.294;2022-10-13T12:27:23;6.38;;;3.58;;
11970;SDS011;6045;42.682;23.294;2022-10-13T12:29:51;6.28;;;4.07;;
11970;SDS011;6045;42.682;23.294;2022-10-13T12:32:19;4.85;;;3.88;;
11970;SDS011;6045;42.682;23.294;2022-10-13T12:34:47;7.10;;;4.68;;
11970;SDS011;6045;42.682;23.294;2022-10-13T12:37:17;5.75;;;4.00;;
11970;SDS011;6045;42.682;23.294;2022-10-13T12:39:51;5.97;;;3.92;;
11970;SDS011;6045;42.682;23.294;2022-10-13T12:42:26;7.72;;;3.67;;
11970;SDS011;6045;42.682;23.294;2022-10-13T12:44:57;7.28;;;4.07;;
11970;SDS011;6045;42.682;23.294;2022-10-13T12:47:35;5.20;;;3.53;;
11970;SDS011;6045;42.682;23.294;2022-10-13T12:50:19;5.45;;;3.65;;
11970;SDS011;6045;42.682;23.294;2022-10-13T12:52:47;5.80;;;3.40;;
11970;SDS011;6045;42.682;23.294;2022-10-13T12:55:16;5.40;;;3.63;;
11970;SDS011;6045;42.682;23.294;2022-10-13T12:57:47;6.60;;;4.78;;
11970;SDS011;6045;42.682;23.294;2022-10-13T13:00:19;5.32;;;3.80;;
11970;SDS011;6045;42.682;23.294;2022-10-13T13:02:49;5.03;;;3.92;;
11970;SDS011;6045;42.682;23.294;2022-10-13T13:05:27;5.90;;;3.70;;
11970;SDS011;6045;42.682;23.294;2022-10-13T13:07:55;4.93;;;3.08;;
11970;SDS011;6045;42.682;23.294;2022-10-13T13:10:22;5.30;;;2.88;;
11970;SDS011;6045;42.682;23.294;2022-10-13T13:12:51;4.57;;;3.20;;
11970;SDS011;6045;42.682;23.294;2022-10-13T13:15:26;4.70;;;3.22;;
11970;SDS011;6045;42.682;23.294;2022-10-13T13:20:53;5.45;;;3.25;;
11970;SDS011;6045;42.682;23.294;2022-10-13T13:23:20;4.15;;;3.25;;
11970;SDS011;6045;42.682;23.294;2022-10-13T13:25:58;5.15;;;3.50;;
11970;SDS011;6045;42.682;23.294;2022-10-13T13:28:29;5.18;;;3.05;;
11970;SDS011;6045;42.682;23.294;2022-10-13T13:30:57;4.38;;;2.97;;
11970;SDS011;6045;42.682;23.294;2022-10-13T13:33:27;4.00;;;3.13;;
11970;SDS011;6045;42.682;23.294;2022-10-13T13:35:54;6.65;;;3.83;;
11970;SDS011;6045;42.682;23.294;2022-10-13T13:38:21;6.30;;;3.60;;
11970;SDS011;6045;42.682;23.294;2022-10-13T13:40:48;6.18;;;3.67;;
11970;SDS011;6045;42.682;23.294;2022-10-13T13:43:15;6.13;;;3.50;;
11970;SDS011;6045;42.682;23.294;2022-10-13T13:45:43;6.07;;;3.65;;
11970;SDS011;6045;42.682;23.294;2022-10-13T13:48:10;5.60;;;3.00;;
11970;SDS011;6045;42.682;23.294;2022-10-13T13:50:37;4.25;;;2.80;;
11970;SDS011;6045;42.682;23.294;2022-10-13T13:53:07;4.53;;;2.95;;
11970;SDS011;6045;42.682;23.294;2022-10-13T13:55:34;5.70;;;3.75;;
11970;SDS011;6045;42.682;23.294;2022-10-13T13:58:02;5.70;;;3.78;;
11970;SDS011;6045;42.682;23.294;2022-10-13T14:00:28;3.83;;;3.00;;
11970;SDS011;6045;42.682;23.294;2022-10-13T14:02:57;3.90;;;3.28;;
11970;SDS011;6045;42.682;23.294;2022-10-13T14:05:25;5.57;;;3.53;;
11970;SDS011;6045;42.682;23.294;2022-10-13T14:07:53;4.60;;;3.47;;
11970;SDS011;6045;42.682;23.294;2022-10-13T14:10:21;4.97;;;3.38;;
11970;SDS011;6045;42.682;23.294;2022-10-13T14:12:48;4.20;;;3.03;;
11970;SDS011;6045;42.682;23.294;2022-10-13T14:15:15;4.68;;;3.38;;
11970;SDS011;6045;42.682;23.294;2022-10-13T14:17:42;4.13;;;2.83;;
11970;SDS011;6045;42.682;23.294;2022-10-13T14:20:11;3.78;;;3.10;;
11970;SDS011;6045;42.682;23.294;2022-10-13T14:22:37;5.43;;;3.22;;
11970;SDS011;6045;42.682;23.294;2022-10-13T14:25:05;4.85;;;3.00;;
11970;SDS011;6045;42.682;23.294;2022-10-13T14:27:33;3.85;;;2.95;;
11970;SDS011;6045;42.682;23.294;2022-10-13T14:30:13;6.88;;;4.00;;
11970;SDS011;6045;42.682;23.294;2022-10-13T14:32:40;3.75;;;2.95;;
11970;SDS011;6045;42.682;23.294;2022-10-13T14:35:07;4.82;;;2.97;;
11970;SDS011;6045;42.682;23.294;2022-10-13T14:37:35;4.25;;;3.30;;
11970;SDS011;6045;42.682;23.294;2022-10-13T14:40:02;5.03;;;2.65;;
11970;SDS011;6045;42.682;23.294;2022-10-13T14:42:29;3.63;;;2.65;;
11970;SDS011;6045;42.682;23.294;2022-10-13T14:44:56;4.82;;;2.95;;
11970;SDS011;6045;42.682;23.294;2022-10-13T14:47:23;4.55;;;3.10;;
11970;SDS011;6045;42.682;23.294;2022-10-13T14:49:56;3.50;;;3.15;;
11970;SDS011;6045;42.682;23.294;2022-10-13T14:52:23;4.72;;;2.80;;
11970;SDS011;6045;42.682;23.294;2022-10-13T14:54:51;4.00;;;3.08;;
11970;SDS011;6045;42.682;23.294;2022-10-13T14:57:18;5.03;;;3.33;;
11970;SDS011;6045;42.682;23.294;2022-10-13T14:59:44;4.43;;;3.03;;
11970;SDS011;6045;42.682;23.294;2022-10-13T15:02:11;4.93;;;3.28;;
11970;SDS011;6045;42.682;23.294;2022-10-13T15:04:39;5.68;;;3.25;;
11970;SDS011;6045;42.682;23.294;2022-10-13T15:07:05;4.90;;;3.78;;
11970;SDS011;6045;42.682;23.294;2022-10-13T15:09:32;5.20;;;3.10;;
11970;SDS011;6045;42.682;23.294;2022-10-13T15:12:01;5.97;;;3.30;;
11970;SDS011;6045;42.682;23.294;2022-10-13T15:14:28;3.92;;;3.00;;
11970;SDS011;6045;42.682;23.294;2022-10-13T15:16:54;4.85;;;3.30;;